Time;durP1;ratioP1;P1;durP2;ratioP2;P2;SDS_P1;SDS_P2;PMS_P1;PMS_P2;Temp;Humidity;BMP_temperature;BMP_pressure;BME280_temperature;BME280_humidity;BME280_pressure;Samples;Min_cycle;Max_cycle;Signal;HPM_P1;HPM_P2
2023/06/20 00:00:59;;;;;;;13.65;10.95;;;;;;;25.96;58.54;99395.41;4942848;28;20125;-87
2023/06/20 00:03:26;;;;;;;12.77;10.57;;;;;;;25.96;58.20;99396.22;4960862;28;20054;-88
2023/06/20 00:05:53;;;;;;;14.77;10.95;;;;;;;26.01;57.94;99384.59;4954073;28;20334;-86
2023/06/20 00:08:20;;;;;;;14.48;10.93;;;;;;;25.94;57.62;99397.53;4959810;28;20057;-87
2023/06/20 00:10:47;;;;;;;12.93;10.52;;;;;;;25.92;57.87;99402.41;4938596;28;20133;-87
2023/06/20 00:13:17;;;;;;;19.10;10.77;;;;;;;25.90;58.23;99404.53;4946772;28;20050;-87
2023/06/20 00:15:44;;;;;;;14.48;10.90;;;;;;;25.87;58.46;99408.56;4968680;28;20046;-87
2023/06/20 00:18:11;;;;;;;12.80;10.82;;;;;;;25.86;58.80;99420.53;4954643;28;20088;-87
2023/06/20 00:20:38;;;;;;;16.23;10.98;;;;;;;25.85;59.02;99420.75;4951803;28;20085;-87
2023/06/20 00:23:06;;;;;;;15.90;11.00;;;;;;;25.87;58.62;99424.88;4968453;28;20054;-86
2023/06/20 00:25:33;;;;;;;15.60;10.68;;;;;;;25.86;58.64;99423.25;4956950;28;20055;-87
2023/06/20 00:28:02;;;;;;;15.15;10.98;;;;;;;25.87;58.46;99426.78;4962780;28;20134;-87
2023/06/20 00:30:29;;;;;;;19.10;11.50;;;;;;;25.84;58.29;99427.25;4961004;28;20042;-87
2023/06/20 00:32:58;;;;;;;12.77;10.82;;;;;;;25.87;58.13;99434.94;4959648;28;20042;-87
2023/06/20 00:35:25;;;;;;;14.50;11.82;;;;;;;25.86;58.27;99441.47;4975969;28;20062;-87
2023/06/20 00:37:53;;;;;;;12.95;10.80;;;;;;;25.91;58.19;99506.84;4937612;28;20113;-86
2023/06/20 00:40:21;;;;;;;23.27;11.63;;;;;;;25.94;56.72;99488.13;4972666;28;20046;-86
2023/06/20 00:42:48;;;;;;;16.98;11.25;;;;;;;25.95;56.71;99508.00;4976171;28;20058;-87
2023/06/20 00:45:27;;;;;;;18.27;10.90;;;;;;;25.90;56.62;99494.31;4953622;28;20121;-87
2023/06/20 00:47:55;;;;;;;14.88;10.15;;;;;;;25.99;56.58;99501.00;4961964;28;20133;-87
2023/06/20 00:50:27;;;;;;;13.38;10.00;;;;;;;26.03;56.42;99496.72;4937813;28;20054;-86
2023/06/20 00:52:59;;;;;;;14.20;10.45;;;;;;;26.04;56.32;99487.50;4983653;28;20136;-86
2023/06/20 00:55:27;;;;;;;12.90;10.80;;;;;;;26.05;56.47;99500.00;4973897;28;20043;-89
2023/06/20 00:57:58;;;;;;;13.57;11.00;;;;;;;26.04;57.33;99511.16;4954588;28;20058;-87
2023/06/20 01:00:26;;;;;;;18.83;11.43;;;;;;;26.04;57.74;99513.88;4934432;28;20046;-85
2023/06/20 01:02:56;;;;;;;13.70;10.85;;;;;;;26.02;58.32;99530.44;4952100;28;20050;-86
2023/06/20 01:05:27;;;;;;;16.30;10.77;;;;;;;26.08;57.77;99548.53;4955728;28;20043;-87
2023/06/20 01:08:02;;;;;;;15.30;10.68;;;;;;;26.01;58.23;99583.22;4971090;28;20050;-86
2023/06/20 01:11:12;;;;;;;17.40;10.90;;;;;;;25.94;59.65;99615.19;4961854;28;20058;-85
2023/06/20 01:14:16;;;;;;;27.38;12.45;;;;;;;25.91;61.75;99648.31;4972999;28;20399;-87
2023/06/20 01:17:07;;;;;;;31.17;13.77;;;;;;;25.75;65.52;99647.13;4950674;28;20063;-87
2023/06/20 01:19:49;;;;;;;19.95;12.63;;;;;;;25.70;65.32;99647.84;4958796;28;20054;-88
2023/06/20 01:22:30;;;;;;;18.15;12.95;;;;;;;25.68;65.83;99660.84;4966674;28;20050;-88
2023/06/20 01:24:58;;;;;;;25.30;13.65;;;;;;;25.67;64.21;99651.06;4970633;28;20535;-89
2023/06/20 01:27:33;;;;;;;20.65;13.65;;;;;;;25.65;65.81;99646.94;4960152;28;20320;-87
2023/06/20 01:30:03;;;;;;;22.73;13.40;;;;;;;25.62;65.24;99650.09;4936430;28;20050;-87
2023/06/20 01:32:32;;;;;;;27.50;14.57;;;;;;;25.56;66.26;99660.03;4952190;28;20097;-88
2023/06/20 01:35:07;;;;;;;28.50;14.80;;;;;;;25.47;68.61;99658.78;4957368;28;20046;-87
2023/06/20 01:37:37;;;;;;;31.40;14.35;;;;;;;25.47;67.59;99646.00;4958342;28;20042;-87
2023/06/20 01:40:05;;;;;;;30.42;14.90;;;;;;;25.42;67.11;99642.34;4942319;28;20595;-87
2023/06/20 01:42:33;;;;;;;26.67;14.68;;;;;;;25.40;67.71;99626.25;4946794;28;20725;-86
2023/06/20 01:45:02;;;;;;;27.30;15.63;;;;;;;25.39;68.55;99631.91;4973296;28;20142;-87
2023/06/20 01:47:30;;;;;;;23.98;14.35;;;;;;;25.37;68.62;99624.03;4957983;28;20047;-88
2023/06/20 01:49:57;;;;;;;25.73;15.05;;;;;;;25.36;69.10;99613.38;4972605;28;20046;-87
2023/06/20 01:52:25;;;;;;;28.63;14.50;;;;;;;25.29;69.30;99608.91;4937499;28;20536;-86
2023/06/20 01:54:53;;;;;;;24.27;15.27;;;;;;;25.26;68.19;99608.53;4931681;28;20047;-86
2023/06/20 01:57:21;;;;;;;26.55;15.85;;;;;;;25.23;68.35;99607.13;4942114;28;20054;-88
2023/06/20 01:59:49;;;;;;;23.45;15.13;;;;;;;25.22;68.65;99602.75;4940266;28;20146;-88
2023/06/20 02:02:17;;;;;;;24.95;14.73;;;;;;;25.26;67.97;99601.22;4949228;28;20043;-87
2023/06/20 02:04:45;;;;;;;23.75;14.35;;;;;;;25.15;68.59;99601.19;4953926;28;20104;-87
2023/06/20 02:07:13;;;;;;;22.88;14.43;;;;;;;25.10;68.45;99597.28;4956057;28;20046;-87
2023/06/20 02:09:44;;;;;;;26.75;15.60;;;;;;;25.07;69.36;99588.81;4969698;28;20090;-87
2023/06/20 02:12:12;;;;;;;26.17;14.98;;;;;;;25.07;68.62;99573.31;4967486;28;20057;-87
2023/06/20 02:14:39;;;;;;;28.80;16.05;;;;;;;25.02;69.21;99573.19;4947019;28;20053;-88
2023/06/20 02:17:07;;;;;;;28.08;15.55;;;;;;;25.03;69.85;99579.47;4953093;28;20070;-87
2023/06/20 02:19:34;;;;;;;27.35;15.63;;;;;;;25.07;70.24;99578.75;4937231;28;20074;-88
2023/06/20 02:22:01;;;;;;;21.98;15.00;;;;;;;25.00;71.23;99564.47;4951160;28;20050;-87
2023/06/20 02:24:31;;;;;;;33.00;16.48;;;;;;;25.02;71.26;99565.06;4963609;28;20113;-87
2023/06/20 02:27:00;;;;;;;27.17;14.82;;;;;;;25.00;71.83;99569.06;4942043;28;20047;-87
2023/06/20 02:29:37;;;;;;;28.67;13.95;;;;;;;25.04;71.54;99575.69;4949973;28;20039;-87
2023/06/20 02:32:05;;;;;;;28.52;15.55;;;;;;;25.06;71.34;99568.97;4951986;28;20057;-87
2023/06/20 02:34:38;;;;;;;25.52;14.98;;;;;;;25.04;72.64;99575.69;4952786;28;20503;-87
2023/06/20 02:37:08;;;;;;;29.00;16.93;;;;;;;25.04;72.02;99572.97;4933762;28;20042;-88
2023/06/20 02:39:34;;;;;;;29.60;15.93;;;;;;;25.04;72.36;99581.13;4953264;28;20436;-86
2023/06/20 02:42:02;;;;;;;23.27;14.43;;;;;;;25.04;72.25;99570.25;4955930;28;20506;-87
2023/06/20 02:44:29;;;;;;;28.08;15.38;;;;;;;25.03;72.30;99566.69;4955602;28;20766;-86
2023/06/20 02:47:24;;;;;;;28.30;14.75;;;;;;;24.94;73.31;99575.47;4947989;28;20053;-88
2023/06/20 02:50:08;;;;;;;25.00;15.32;;;;;;;24.80;74.36;99583.00;4968083;28;20051;-87
2023/06/20 02:53:02;;;;;;;25.77;16.85;;;;;;;24.78;73.23;99561.53;4959391;28;20140;-87
2023/06/20 02:56:01;;;;;;;26.80;16.75;;;;;;;24.64;73.86;99565.50;4922752;28;20411;-88
2023/06/20 02:58:31;;;;;;;28.75;15.60;;;;;;;24.79;72.46;99565.06;4914586;28;20066;-88
2023/06/20 03:01:00;;;;;;;25.35;15.20;;;;;;;24.80;72.46;99559.38;4934650;28;20067;-87
2023/06/20 03:03:36;;;;;;;25.80;16.10;;;;;;;24.76;73.16;99562.81;4970421;28;20047;-87
2023/06/20 03:06:06;;;;;;;29.55;16.05;;;;;;;24.81;72.41;99562.94;4957227;28;20768;-87
2023/06/20 03:08:36;;;;;;;26.63;16.30;;;;;;;24.85;71.89;99564.94;4940713;28;20121;-88
2023/06/20 03:11:03;;;;;;;23.85;14.82;;;;;;;24.82;71.75;99565.41;4944083;28;20048;-87
2023/06/20 03:13:30;;;;;;;28.00;15.63;;;;;;;24.79;71.78;99576.75;4966848;28;20067;-86
2023/06/20 03:15:57;;;;;;;28.27;15.65;;;;;;;24.76;72.20;99574.50;4959733;28;20138;-86
2023/06/20 03:18:25;;;;;;;30.80;17.42;;;;;;;24.78;71.78;99572.38;4947279;28;20050;-86
2023/06/20 03:20:52;;;;;;;33.40;17.77;;;;;;;24.74;72.24;99573.09;4943288;28;20192;-87
2023/06/20 03:23:19;;;;;;;26.77;16.65;;;;;;;24.67;72.14;99573.19;4948097;28;20499;-87
2023/06/20 03:25:46;;;;;;;27.25;16.13;;;;;;;24.63;72.02;99563.88;4944632;28;20058;-86
2023/06/20 03:28:14;;;;;;;35.95;17.48;;;;;;;24.64;72.13;99563.63;4934233;28;20049;-86
2023/06/20 03:30:48;;;;;;;34.63;18.35;;;;;;;24.64;72.43;99573.66;4934219;28;20047;-87
2023/06/20 03:33:15;;;;;;;27.38;17.02;;;;;;;24.64;72.20;99573.66;4941087;28;20930;-87
2023/06/20 03:35:42;;;;;;;29.48;18.63;;;;;;;24.61;72.01;99574.13;4958504;28;20566;-86
2023/06/20 03:38:12;;;;;;;31.25;18.23;;;;;;;24.56;72.30;99576.72;4957480;28;20105;-86
2023/06/20 03:40:38;;;;;;;33.15;18.85;;;;;;;24.55;72.12;99578.63;4950739;28;20054;-87
2023/06/20 03:43:05;;;;;;;32.35;18.60;;;;;;;24.54;72.22;99581.56;4958695;28;20549;-87
2023/06/20 03:45:37;;;;;;;33.15;18.63;;;;;;;24.51;72.46;99587.47;4923667;28;20046;-87
2023/06/20 03:48:04;;;;;;;29.33;18.65;;;;;;;24.49;72.42;99584.97;4954768;28;20086;-87
2023/06/20 03:50:32;;;;;;;29.50;18.58;;;;;;;24.47;72.62;99579.78;4934864;28;20046;-86
2023/06/20 03:53:01;;;;;;;32.50;18.65;;;;;;;24.48;72.52;99576.00;4946726;28;20055;-87
2023/06/20 03:55:27;;;;;;;30.33;17.90;;;;;;;24.46;72.63;99571.88;4962237;28;20447;-85
2023/06/20 03:57:55;;;;;;;31.27;19.00;;;;;;;24.45;72.64;99576.47;4959990;28;20057;-85
2023/06/20 04:00:22;;;;;;;28.48;18.35;;;;;;;24.42;72.44;99574.16;4958156;28;20066;-87
2023/06/20 04:02:49;;;;;;;38.00;18.70;;;;;;;24.41;72.66;99582.56;4973775;28;20055;-89
2023/06/20 04:05:17;;;;;;;29.67;19.38;;;;;;;24.37;73.11;99590.31;4958563;28;20042;-88
2023/06/20 04:07:43;;;;;;;33.28;20.17;;;;;;;24.39;73.16;99580.06;4963474;28;20071;-86
2023/06/20 04:10:12;;;;;;;31.33;18.27;;;;;;;24.40;73.29;99583.59;4959866;28;20141;-87
2023/06/20 04:12:40;;;;;;;33.13;19.60;;;;;;;24.47;73.00;99581.66;4957508;28;20050;-86
2023/06/20 04:15:08;;;;;;;33.15;19.75;;;;;;;24.71;72.94;99579.00;5001555;28;20050;-86
2023/06/20 04:17:37;;;;;;;32.47;18.95;;;;;;;24.95;72.45;99577.09;4957999;28;20058;-88
2023/06/20 04:20:11;;;;;;;32.50;18.90;;;;;;;25.17;71.95;99580.09;4979403;28;20148;-89
2023/06/20 04:22:46;;;;;;;32.67;18.50;;;;;;;25.27;72.04;99581.13;4937705;28;20436;-89
2023/06/20 04:25:24;;;;;;;32.60;19.02;;;;;;;25.36;71.56;99578.88;4943878;28;20076;-87
2023/06/20 04:27:55;;;;;;;35.10;19.30;;;;;;;25.47;71.27;99575.31;4951883;28;20046;-87
2023/06/20 04:30:27;;;;;;;28.25;19.10;;;;;;;25.51;71.04;99575.66;4961443;28;20499;-88
2023/06/20 04:32:53;;;;;;;33.22;19.10;;;;;;;25.53;71.07;99576.25;4937110;28;20132;-88
2023/06/20 04:35:21;;;;;;;34.75;19.33;;;;;;;25.59;70.90;99582.59;4965414;28;20130;-87
2023/06/20 04:37:52;;;;;;;34.40;18.90;;;;;;;25.48;70.09;99582.41;4944903;28;21490;-88
2023/06/20 04:40:22;;;;;;;31.05;18.70;;;;;;;25.54;70.03;99588.75;4969993;28;20501;-88
2023/06/20 04:42:49;;;;;;;27.75;17.80;;;;;;;25.52;69.38;99586.28;4962662;28;20522;-89
2023/06/20 04:45:16;;;;;;;33.10;19.83;;;;;;;25.46;69.42;99584.53;4941421;28;20051;-87
2023/06/20 04:47:43;;;;;;;34.92;21.13;;;;;;;25.50;69.22;99582.16;4938839;28;20058;-86
2023/06/20 04:50:10;;;;;;;35.30;18.95;;;;;;;25.45;69.68;99590.22;4956316;28;20069;-88
2023/06/20 04:52:37;;;;;;;36.22;20.65;;;;;;;25.44;70.07;99589.41;4943774;28;20404;-87
2023/06/20 04:55:04;;;;;;;36.75;21.23;;;;;;;25.31;69.61;99587.72;4973407;28;20302;-89
2023/06/20 04:57:33;;;;;;;36.17;20.70;;;;;;;25.32;69.34;99586.69;4936775;28;20057;-88
2023/06/20 05:00:00;;;;;;;35.78;20.35;;;;;;;25.34;69.81;99573.69;4929624;28;20050;-86
2023/06/20 05:02:26;;;;;;;32.05;19.90;;;;;;;25.35;70.20;99579.94;4935827;28;20101;-88
2023/06/20 05:04:54;;;;;;;40.80;19.25;;;;;;;25.39;71.00;99591.16;4964532;28;20082;-88
2023/06/20 05:07:24;;;;;;;31.30;20.17;;;;;;;25.36;70.66;99587.03;4938792;28;20050;-86
2023/06/20 05:09:52;;;;;;;32.63;19.80;;;;;;;25.38;70.60;99584.06;4932205;28;20050;-87
2023/06/20 05:12:18;;;;;;;31.40;19.67;;;;;;;25.38;69.89;99590.34;4922560;28;20530;-88
2023/06/20 05:14:45;;;;;;;38.95;19.83;;;;;;;25.44;70.76;99594.84;4969449;28;20054;-88
2023/06/20 05:17:12;;;;;;;32.10;20.15;;;;;;;25.38;70.47;99587.63;4965347;28;20053;-87
2023/06/20 05:19:39;;;;;;;35.30;21.23;;;;;;;25.45;71.02;99592.94;4957127;28;20051;-87
2023/06/20 05:22:06;;;;;;;34.55;20.88;;;;;;;25.36;70.60;99586.19;4974221;28;20701;-87
2023/06/20 05:24:33;;;;;;;36.35;21.67;;;;;;;25.38;71.13;99584.06;4979597;28;20531;-88
2023/06/20 05:26:59;;;;;;;33.53;21.63;;;;;;;25.30;71.43;99586.09;4987716;28;20065;-87
2023/06/20 05:29:26;;;;;;;37.75;21.55;;;;;;;25.36;71.86;99586.19;4964051;28;20130;-87
2023/06/20 05:31:53;;;;;;;35.00;21.00;;;;;;;25.35;72.18;99579.94;4951681;28;20416;-88
2023/06/20 05:34:21;;;;;;;37.30;21.15;;;;;;;25.36;72.10;99591.63;4945925;28;20058;-88
2023/06/20 05:36:48;;;;;;;35.72;21.25;;;;;;;25.37;72.75;99594.13;4922512;28;20050;-84
2023/06/20 05:39:15;;;;;;;31.65;19.63;;;;;;;25.40;73.08;99590.09;4965457;28;20046;-86
2023/06/20 05:41:42;;;;;;;34.53;21.45;;;;;;;25.43;72.94;99593.16;4963199;28;20157;-87
2023/06/20 05:44:09;;;;;;;33.17;20.42;;;;;;;25.46;72.64;99598.13;4984238;28;20054;-87
2023/06/20 05:46:36;;;;;;;40.88;23.33;;;;;;;25.53;71.97;99604.25;4981432;28;20054;-86
2023/06/20 05:49:03;;;;;;;39.22;21.10;;;;;;;25.53;72.36;99600.72;4967346;28;20054;-87
2023/06/20 05:51:30;;;;;;;37.95;22.15;;;;;;;25.59;72.27;99609.78;4958614;28;20066;-86
2023/06/20 05:53:57;;;;;;;38.50;21.30;;;;;;;25.54;72.48;99596.91;4966877;28;20517;-86
2023/06/20 05:56:24;;;;;;;37.03;21.10;;;;;;;25.54;73.16;99596.91;4951444;28;20046;-87
2023/06/20 05:58:51;;;;;;;39.15;22.52;;;;;;;25.60;73.27;99603.31;4968255;28;20043;-87
2023/06/20 06:01:18;;;;;;;33.40;21.50;;;;;;;25.64;72.11;99599.03;4982053;28;20056;-87
2023/06/20 06:03:47;;;;;;;34.25;21.25;;;;;;;25.61;72.57;99607.66;4935115;28;20042;-87
2023/06/20 06:06:15;;;;;;;39.20;21.00;;;;;;;25.66;73.40;99602.34;4966682;28;20053;-87
2023/06/20 06:08:42;;;;;;;33.30;19.73;;;;;;;25.64;72.29;99599.03;4983574;28;20109;-86
2023/06/20 06:11:09;;;;;;;27.90;18.55;;;;;;;25.71;72.40;99599.72;4983651;28;20140;-87
2023/06/20 06:13:38;;;;;;;31.75;18.23;;;;;;;25.75;71.62;99600.91;4982283;28;20082;-87
2023/06/20 06:16:06;;;;;;;29.42;19.27;;;;;;;25.71;72.56;99597.81;4944734;28;20050;-86
2023/06/20 06:18:33;;;;;;;36.55;18.50;;;;;;;25.73;72.37;99614.72;4965670;28;20046;-86
2023/06/20 06:20:59;;;;;;;31.73;18.27;;;;;;;25.75;72.42;99612.59;4982144;28;20061;-88
2023/06/20 06:23:27;;;;;;;29.38;16.83;;;;;;;25.76;72.11;99614.25;4969243;28;20151;-87
2023/06/20 06:25:54;;;;;;;35.05;17.58;;;;;;;25.75;72.11;99606.34;4965161;28;20050;-87
2023/06/20 06:28:24;;;;;;;28.08;16.35;;;;;;;25.82;70.75;99612.44;4968885;28;20120;-88
2023/06/20 06:30:51;;;;;;;30.85;17.52;;;;;;;25.80;71.26;99617.31;4934445;28;20125;-86
2023/06/20 06:33:19;;;;;;;24.67;15.30;;;;;;;25.84;71.89;99613.03;4981583;28;21112;-86
2023/06/20 06:35:47;;;;;;;25.58;14.35;;;;;;;25.89;71.22;99625.97;4970276;28;20053;-87
2023/06/20 06:38:14;;;;;;;24.73;14.48;;;;;;;25.91;70.87;99615.66;4959237;28;20584;-87
2023/06/20 06:40:43;;;;;;;22.63;15.10;;;;;;;25.92;71.24;99609.97;4962526;28;20586;-87
2023/06/20 06:43:09;;;;;;;25.38;14.25;;;;;;;25.93;71.19;99616.25;4958817;28;20484;-86
2023/06/20 06:45:38;;;;;;;29.60;15.15;;;;;;;25.96;70.50;99619.31;4953687;28;20054;-88
2023/06/20 06:48:04;;;;;;;24.55;12.85;;;;;;;25.96;70.96;99615.75;4966569;28;20126;-87
2023/06/20 06:50:31;;;;;;;23.38;14.45;;;;;;;25.97;70.89;99620.13;4939645;28;20600;-87
2023/06/20 06:52:58;;;;;;;23.83;12.98;;;;;;;25.96;70.78;99610.31;4920344;28;20502;-87
2023/06/20 06:55:25;;;;;;;17.20;11.93;;;;;;;25.97;71.01;99611.97;4963020;28;20065;-87
2023/06/20 06:57:52;;;;;;;14.90;10.50;;;;;;;26.04;69.68;99611.84;4952304;28;20050;-87
2023/06/20 07:00:20;;;;;;;18.52;10.63;;;;;;;26.01;69.58;99606.88;4946856;28;20312;-88
2023/06/20 07:02:46;;;;;;;18.10;11.65;;;;;;;26.01;69.92;99613.16;4960364;28;20047;-87
2023/06/20 07:05:14;;;;;;;13.20;9.70;;;;;;;26.00;69.29;99608.75;4966740;28;20498;-87
2023/06/20 07:07:40;;;;;;;16.48;10.13;;;;;;;25.99;69.52;99618.00;4977840;28;20134;-88
2023/06/20 07:10:09;;;;;;;18.80;10.80;;;;;;;26.01;69.08;99613.16;4948991;28;20062;-86
2023/06/20 07:12:35;;;;;;;22.92;10.52;;;;;;;26.00;69.76;99611.47;4949055;28;20062;-87
2023/06/20 07:15:02;;;;;;;20.52;11.02;;;;;;;26.01;69.43;99617.75;4982138;28;20133;-87
2023/06/20 07:17:29;;;;;;;20.98;11.45;;;;;;;26.02;69.41;99622.13;4939307;28;20050;-86
2023/06/20 07:19:56;;;;;;;17.10;10.02;;;;;;;26.02;69.67;99631.09;4959449;28;20224;-87
2023/06/20 07:22:24;;;;;;;17.00;10.68;;;;;;;26.02;68.83;99608.53;4954154;28;20046;-88
2023/06/20 07:24:50;;;;;;;16.45;9.90;;;;;;;26.03;69.34;99611.00;4972627;28;20133;-88
2023/06/20 07:27:22;;;;;;;21.40;11.57;;;;;;;26.05;68.43;99611.56;4951206;28;20050;-87
2023/06/20 07:29:49;;;;;;;19.85;11.52;;;;;;;26.08;68.58;99604.81;4962549;28;20054;-87
2023/06/20 07:32:16;;;;;;;20.23;11.32;;;;;;;26.09;68.47;99599.13;4950156;28;20047;-87
2023/06/20 07:34:43;;;;;;;18.48;11.25;;;;;;;26.09;68.68;99604.59;4985731;28;20054;-86
2023/06/20 07:37:10;;;;;;;16.20;10.88;;;;;;;26.09;68.66;99599.13;4975918;28;20583;-88
2023/06/20 07:39:42;;;;;;;23.02;11.05;;;;;;;26.12;69.01;99600.56;4961379;28;20046;-86
2023/06/20 07:42:09;;;;;;;18.25;11.63;;;;;;;26.13;68.12;99602.19;4944885;28;20507;-87
2023/06/20 07:44:36;;;;;;;22.98;12.43;;;;;;;26.12;68.09;99604.09;4929052;28;20105;-87
2023/06/20 07:47:03;;;;;;;17.83;11.20;;;;;;;26.13;68.07;99597.59;4957225;28;20077;-88
2023/06/20 07:49:31;;;;;;;17.90;11.32;;;;;;;26.13;67.54;99602.19;4937289;28;20554;-87
2023/06/20 07:51:58;;;;;;;20.33;11.43;;;;;;;26.14;67.82;99598.41;4953597;28;20062;-86
2023/06/20 07:54:25;;;;;;;16.65;10.90;;;;;;;26.14;68.02;99593.78;4941025;28;20125;-87
2023/06/20 07:56:52;;;;;;;19.85;11.95;;;;;;;26.16;67.33;99599.81;4932964;28;20050;-87
2023/06/20 07:59:19;;;;;;;19.20;11.10;;;;;;;26.18;67.68;99597.69;4968520;28;20109;-87
2023/06/20 08:01:46;;;;;;;18.83;11.48;;;;;;;26.16;67.13;99602.53;4972041;28;20053;-87
2023/06/20 08:04:13;;;;;;;21.17;11.93;;;;;;;26.22;67.51;99603.47;4948729;28;20053;-89
2023/06/20 08:06:41;;;;;;;18.00;10.52;;;;;;;26.25;67.30;99611.13;4968276;28;20058;-87
2023/06/20 08:09:08;;;;;;;18.00;11.02;;;;;;;26.24;66.79;99609.50;4962746;28;20051;-88
2023/06/20 08:11:35;;;;;;;21.17;11.65;;;;;;;26.29;67.18;99606.03;4963292;28;20674;-87
2023/06/20 08:14:02;;;;;;;15.55;10.18;;;;;;;26.26;66.92;99598.38;4962828;28;20132;-88
2023/06/20 08:16:29;;;;;;;17.92;11.57;;;;;;;26.32;67.27;99600.91;4947684;28;20050;-87
2023/06/20 08:18:55;;;;;;;21.67;11.85;;;;;;;26.33;67.08;99588.97;4969836;28;20060;-87
2023/06/20 08:21:22;;;;;;;16.70;10.98;;;;;;;26.33;66.52;99594.44;4959967;28;20049;-87
2023/06/20 08:23:49;;;;;;;17.25;10.68;;;;;;;26.36;66.52;99588.47;4970648;28;20097;-89
2023/06/20 08:26:16;;;;;;;16.50;10.68;;;;;;;26.35;66.41;99586.81;4950205;28;20465;-88
2023/06/20 08:28:43;;;;;;;19.58;11.85;;;;;;;26.38;66.53;99591.78;4958289;28;20046;-89
2023/06/20 08:31:10;;;;;;;24.23;12.70;;;;;;;26.40;65.69;99596.97;4961206;28;20050;-88
2023/06/20 08:33:36;;;;;;;18.30;11.48;;;;;;;26.43;66.23;99599.19;4961169;28;20105;-87
2023/06/20 08:36:04;;;;;;;18.08;11.57;;;;;;;26.47;66.26;99592.19;4930180;28;20496;-88
2023/06/20 08:38:31;;;;;;;21.30;11.75;;;;;;;26.49;66.18;99587.34;4964752;28;20121;-88
2023/06/20 08:40:58;;;;;;;20.95;11.52;;;;;;;26.50;66.50;99583.53;4957899;28;20146;-88
2023/06/20 08:43:28;;;;;;;20.27;10.70;;;;;;;26.54;66.09;99586.66;4972935;28;20038;-88
2023/06/20 08:45:55;;;;;;;19.20;12.27;;;;;;;26.58;65.41;99587.78;4958820;28;20504;-87
2023/06/20 08:48:23;;;;;;;21.50;11.80;;;;;;;26.62;64.83;99586.22;4957373;28;20050;-88
2023/06/20 08:50:51;;;;;;;22.25;12.50;;;;;;;26.65;64.84;99584.91;4980194;28;20046;-87
2023/06/20 08:53:19;;;;;;;23.10;12.25;;;;;;;26.70;64.55;99585.00;4972113;28;20126;-87
2023/06/20 08:55:51;;;;;;;16.15;11.40;;;;;;;26.75;64.12;99585.06;4964012;28;20558;-87
2023/06/20 08:58:18;;;;;;;19.15;12.18;;;;;;;26.77;63.86;99578.31;4955021;28;20131;-87
2023/06/20 09:00:45;;;;;;;18.70;12.63;;;;;;;26.82;63.29;99581.09;4969176;28;20046;-87
2023/06/20 09:03:13;;;;;;;16.52;11.75;;;;;;;26.82;63.39;99572.13;4955878;28;20050;-87
2023/06/20 09:05:42;;;;;;;22.20;13.00;;;;;;;26.86;62.51;99570.53;4964718;28;20405;-86
2023/06/20 09:08:15;;;;;;;17.42;12.02;;;;;;;26.85;61.93;99574.34;4943967;28;20046;-85
2023/06/20 09:10:44;;;;;;;14.63;11.38;;;;;;;26.89;62.21;99564.56;4957875;28;20583;-88
2023/06/20 09:13:12;;;;;;;17.65;12.63;;;;;;;26.91;62.42;99564.34;4947449;28;20097;-87
2023/06/20 09:15:41;;;;;;;19.98;13.02;;;;;;;26.95;62.40;99560.03;4946373;28;20527;-87
2023/06/20 09:18:12;;;;;;;16.50;11.85;;;;;;;26.93;62.56;99556.75;4948809;28;20046;-88
2023/06/20 09:20:40;;;;;;;18.20;10.80;;;;;;;26.95;62.18;99555.41;4935026;28;20571;-88
2023/06/20 09:23:07;;;;;;;20.63;13.15;;;;;;;26.99;61.98;99563.91;4963179;28;20069;-89
2023/06/20 09:25:36;;;;;;;15.50;11.55;;;;;;;26.99;62.27;99556.53;4979686;28;20074;-88
2023/06/20 09:28:13;;;;;;;19.90;12.98;;;;;;;27.00;61.67;99560.13;4952192;28;20081;-87
2023/06/20 09:30:44;;;;;;;15.88;11.65;;;;;;;27.08;61.25;99562.41;4965184;28;20069;-87
2023/06/20 09:33:13;;;;;;;18.85;12.80;;;;;;;27.12;60.47;99554.53;4972693;28;20408;-87
2023/06/20 09:35:40;;;;;;;16.92;12.23;;;;;;;27.09;60.45;99542.25;4956163;28;20276;-87
2023/06/20 09:38:07;;;;;;;22.33;13.25;;;;;;;27.09;60.08;99542.25;4963460;28;20088;-87
2023/06/20 09:40:44;;;;;;;20.85;11.65;;;;;;;27.05;59.82;99541.13;4958559;28;20077;-87
2023/06/20 09:43:12;;;;;;;17.23;12.13;;;;;;;27.11;60.46;99537.38;4957606;28;20448;-86
2023/06/20 09:45:39;;;;;;;20.65;13.15;;;;;;;27.12;59.89;99540.91;4941762;28;20432;-88
2023/06/20 09:48:08;;;;;;;18.33;12.25;;;;;;;27.12;59.67;99538.19;4965682;28;20046;-88
2023/06/20 09:50:37;;;;;;;14.95;11.95;;;;;;;27.13;59.58;99540.69;4959697;28;20047;-88
2023/06/20 09:53:16;;;;;;;18.67;11.88;;;;;;;27.10;59.07;99546.63;4931277;28;20161;-88
2023/06/20 09:55:43;;;;;;;18.10;13.57;;;;;;;27.16;59.10;99551.06;4938835;28;20082;-86
2023/06/20 09:58:10;;;;;;;18.70;13.10;;;;;;;27.17;59.19;99543.72;4951906;28;20122;-87
2023/06/20 10:00:37;;;;;;;18.05;12.00;;;;;;;27.17;59.12;99546.44;4969225;28;20094;-87
2023/06/20 10:03:10;;;;;;;12.75;10.57;;;;;;;27.15;59.12;99543.97;4966239;28;20424;-88
2023/06/20 10:05:38;;;;;;;17.42;13.05;;;;;;;27.18;58.66;99539.97;4966768;28;20051;-89
2023/06/20 10:08:06;;;;;;;17.38;12.30;;;;;;;27.18;58.43;99545.41;4972948;28;20447;-89
2023/06/20 10:10:32;;;;;;;15.70;11.60;;;;;;;27.19;58.56;99544.31;4952287;28;20045;-88
2023/06/20 10:13:00;;;;;;;17.77;12.23;;;;;;;27.23;58.67;99540.03;4971156;28;20066;-88
2023/06/20 10:15:27;;;;;;;15.77;12.38;;;;;;;27.25;57.76;99533.25;4961319;28;20124;-88
2023/06/20 10:17:53;;;;;;;16.17;11.80;;;;;;;27.28;57.81;99545.53;4973843;28;20046;-87
2023/06/20 10:20:25;;;;;;;16.73;12.15;;;;;;;27.26;57.40;99547.69;4936179;28;20571;-87
2023/06/20 10:22:54;;;;;;;18.05;13.50;;;;;;;27.30;57.06;99531.63;4955860;28;20082;-87
2023/06/20 10:25:21;;;;;;;16.10;11.85;;;;;;;27.31;56.96;99531.41;4949714;28;20533;-87
2023/06/20 10:27:57;;;;;;;18.48;11.98;;;;;;;27.26;57.27;99528.59;4959905;28;20275;-87
2023/06/20 10:30:42;;;;;;;19.63;13.00;;;;;;;27.20;56.52;99519.53;4949970;28;20102;-87
2023/06/20 10:33:10;;;;;;;21.48;13.15;;;;;;;27.32;56.69;99526.75;4981607;28;20047;-87
2023/06/20 10:35:59;;;;;;;17.83;11.88;;;;;;;27.25;56.69;99524.25;4969464;28;20105;-86
2023/06/20 10:38:27;;;;;;;18.67;12.45;;;;;;;27.36;56.66;99522.47;4960769;28;20050;-86
2023/06/20 10:41:24;;;;;;;22.00;12.20;;;;;;;27.31;55.69;99523.22;4966755;28;20511;-87
2023/06/20 10:43:55;;;;;;;18.58;11.95;;;;;;;27.37;55.97;99532.28;4971127;28;20073;-87
2023/06/20 10:46:37;;;;;;;15.07;11.93;;;;;;;27.31;55.63;99530.59;4963000;28;20077;-88
2023/06/20 10:49:05;;;;;;;19.40;12.73;;;;;;;27.40;54.26;99518.97;4960295;28;20105;-87
2023/06/20 10:51:42;;;;;;;21.35;12.57;;;;;;;27.38;54.59;99518.41;4952190;28;20042;-88
2023/06/20 10:54:10;;;;;;;18.38;12.43;;;;;;;27.44;54.17;99525.56;4968139;28;20081;-88
2023/06/20 10:56:37;;;;;;;14.50;11.40;;;;;;;27.45;54.55;99526.38;4932533;28;20471;-85
2023/06/20 10:59:14;;;;;;;15.43;11.73;;;;;;;27.40;55.41;99527.16;4967112;28;20073;-87
2023/06/20 11:01:42;;;;;;;14.38;10.73;;;;;;;27.49;55.46;99533.81;4968283;28;20085;-87
2023/06/20 11:04:09;;;;;;;16.00;11.18;;;;;;;27.55;53.72;99529.22;4968869;28;20185;-87
2023/06/20 11:06:37;;;;;;;16.42;11.60;;;;;;;27.58;54.06;99536.94;4956479;28;20050;-88
2023/06/20 11:09:04;;;;;;;26.65;12.50;;;;;;;27.62;54.21;99529.84;4949481;28;20046;-87
2023/06/20 11:11:37;;;;;;;17.45;12.32;;;;;;;27.60;54.19;99521.09;4954055;28;20105;-85
2023/06/20 11:14:10;;;;;;;20.38;12.30;;;;;;;27.63;53.07;99511.59;4977799;28;20108;-86
2023/06/20 11:16:38;;;;;;;19.90;11.68;;;;;;;27.62;53.38;99518.13;4963567;28;20073;-87
2023/06/20 11:19:05;;;;;;;15.30;11.95;;;;;;;27.62;53.55;99509.94;4945307;28;20054;-85
2023/06/20 11:21:38;;;;;;;19.45;12.32;;;;;;;27.58;52.64;99500.63;4960681;28;20050;-86
2023/06/20 11:24:05;;;;;;;14.68;11.85;;;;;;;27.58;53.12;99500.63;4949263;28;20047;-87
2023/06/20 11:26:33;;;;;;;19.00;11.70;;;;;;;27.60;53.07;99510.19;4950012;28;20043;-85